Time;durP1;ratioP1;P1;durP2;ratioP2;P2;SDS_P1;SDS_P2;PMS_P1;PMS_P2;Temp;Humidity;BMP_temperature;BMP_pressure;BME280_temperature;BME280_humidity;BME280_pressure;Samples;Min_cycle;Max_cycle;Signal;HPM_P1;HPM_P2
2023/03/19 00:01:53;;;;;;;5.00;3.00;;;;;;;4.76;80.02;101599.00;107916;1254;73547;-95
2023/03/19 00:04:24;;;;;;;4.90;2.10;;;;;;;4.74;79.93;101597.30;107236;1254;63359;-93
2023/03/19 00:06:54;;;;;;;2.50;2.30;;;;;;;4.70;79.86;101594.11;107362;1254;73380;-95
2023/03/19 00:09:25;;;;;;;2.70;2.40;;;;;;;4.65;79.85;101591.27;106870;1254;60582;-96
2023/03/19 00:11:54;;;;;;;4.40;2.90;;;;;;;4.61;80.08;101588.73;107062;1254;61153;-96
2023/03/19 00:14:23;;;;;;;3.00;2.00;;;;;;;4.60;80.33;101589.11;107076;1254;73907;-96
2023/03/19 00:16:55;;;;;;;4.60;2.50;;;;;;;4.57;80.65;101592.96;106705;1254;63045;-96
2023/03/19 00:19:26;;;;;;;3.00;2.20;;;;;;;4.56;80.69;101592.47;106375;1254;74587;-95
2023/03/19 00:21:59;;;;;;;4.20;2.50;;;;;;;4.54;80.82;101591.64;106620;1254;61001;-94
2023/03/19 00:24:29;;;;;;;4.10;2.30;;;;;;;4.54;80.84;101590.25;106531;1258;60376;-95
2023/03/19 00:26:58;;;;;;;4.10;3.00;;;;;;;4.52;81.03;101587.52;106630;1255;74015;-95
2023/03/19 00:29:29;;;;;;;3.60;2.80;;;;;;;4.53;81.31;101588.21;106161;1260;65674;-94
2023/03/19 00:32:00;;;;;;;4.50;2.50;;;;;;;4.52;81.39;101581.45;106110;1255;73804;-96
2023/03/19 00:34:29;;;;;;;3.40;2.80;;;;;;;4.58;81.15;101584.66;106198;1260;59665;-94
2023/03/19 00:36:58;;;;;;;3.80;2.70;;;;;;;4.57;80.92;101582.23;106636;1254;60500;-93
2023/03/19 00:39:30;;;;;;;2.90;2.70;;;;;;;4.57;80.77;101583.45;106963;1254;74015;-96
2023/03/19 00:42:00;;;;;;;4.90;3.10;;;;;;;4.54;80.67;101579.17;106842;1254;64627;-94
2023/03/19 00:44:29;;;;;;;4.20;2.10;;;;;;;4.51;80.72;101579.94;108701;1254;72577;-94
2023/03/19 00:46:59;;;;;;;1.90;1.80;;;;;;;4.49;80.97;101577.36;107101;1254;61022;-96
2023/03/19 00:49:28;;;;;;;3.90;2.50;;;;;;;4.51;80.95;101578.03;107472;1260;61152;-96
2023/03/19 00:52:11;;;;;;;4.30;2.20;;;;;;;4.54;81.20;101575.20;108291;1254;72886;-93
2023/03/19 00:54:42;;;;;;;3.10;2.50;;;;;;;4.58;81.43;101576.84;109336;1254;63825;-94
2023/03/19 00:57:11;;;;;;;4.20;2.70;;;;;;;4.63;81.41;101576.94;108145;1254;72615;-93
2023/03/19 00:59:40;;;;;;;6.20;3.10;;;;;;;4.68;81.37;101577.34;106971;1254;59932;-96
2023/03/19 01:02:14;;;;;;;3.70;2.60;;;;;;;4.69;81.30;101578.36;106578;1258;61386;-96
2023/03/19 01:04:43;;;;;;;4.90;2.90;;;;;;;4.66;81.17;101578.94;106420;1256;72787;-96
2023/03/19 01:07:13;;;;;;;4.60;3.40;;;;;;;4.69;80.98;101579.40;106706;1255;64021;-94
2023/03/19 01:09:44;;;;;;;2.30;2.10;;;;;;;4.66;80.78;101577.73;108639;1254;72662;-92
2023/03/19 01:12:12;;;;;;;5.00;2.20;;;;;;;4.64;80.75;101578.46;108794;1254;59806;-91
2023/03/19 01:14:41;;;;;;;3.80;2.60;;;;;;;4.63;80.56;101579.70;107437;1254;61372;-96
2023/03/19 01:17:11;;;;;;;4.00;2.20;;;;;;;4.55;80.97;101581.23;106662;1254;73134;-95
2023/03/19 01:19:40;;;;;;;5.50;2.90;;;;;;;4.50;80.99;101576.29;106494;1254;64061;-95
2023/03/19 01:22:08;;;;;;;2.60;2.10;;;;;;;4.57;81.32;101581.04;109295;1254;72487;-95
2023/03/19 01:24:38;;;;;;;7.10;2.50;;;;;;;4.58;81.22;101579.10;109510;1254;59468;-94
2023/03/19 01:27:07;;;;;;;5.60;2.70;;;;;;;4.59;81.18;101584.11;109488;1254;60171;-94
2023/03/19 01:29:39;;;;;;;3.00;2.70;;;;;;;4.60;81.01;101585.99;106839;1254;72688;-96
2023/03/19 01:32:26;;;;;;;6.00;2.70;;;;;;;4.60;81.01;101582.16;107825;1254;63676;-94
2023/03/19 01:35:15;;;;;;;4.50;2.40;;;;;;;4.58;80.84;101574.95;109563;1254;72769;-94
2023/03/19 01:38:11;;;;;;;5.80;2.80;;;;;;;4.60;80.58;101584.77;109511;1254;62961;-96
2023/03/19 01:40:44;;;;;;;2.90;2.20;;;;;;;4.58;80.40;101578.60;107576;1259;59734;-96
2023/03/19 01:43:21;;;;;;;5.90;2.70;;;;;;;4.56;80.12;101583.64;106963;1258;74102;-96
2023/03/19 01:46:23;;;;;;;6.50;2.60;;;;;;;4.53;80.09;101582.81;107463;1258;62237;-95
2023/03/19 01:49:34;;;;;;;3.40;2.10;;;;;;;4.57;79.94;101585.36;107201;1258;72089;-96
2023/03/19 01:53:24;;;;;;;6.90;2.60;;;;;;;4.57;79.99;101581.70;108456;1258;60236;-95
2023/03/19 02:01:48;;;;;;;3.60;2.70;;;;;;;4.51;79.48;101577.16;109117;1254;74183;-94
2023/03/19 02:04:54;;;;;;;4.80;2.80;;;;;;;4.48;79.60;101577.74;109136;1262;62656;-94
2023/03/19 02:07:44;;;;;;;5.90;2.30;;;;;;;4.49;79.93;101578.23;109626;1254;71852;-94
2023/03/19 02:10:28;;;;;;;5.40;2.50;;;;;;;4.50;80.45;101577.69;108649;1253;60461;-95
2023/03/19 02:13:05;;;;;;;2.60;2.30;;;;;;;4.49;80.58;101575.63;109356;1254;60538;-95
2023/03/19 02:15:35;;;;;;;4.50;2.60;;;;;;;4.48;81.06;101580.52;108476;1259;74338;-96
2023/03/19 02:18:06;;;;;;;4.30;2.30;;;;;;;4.53;81.22;101584.74;107338;1254;62481;-96
2023/03/19 02:21:00;;;;;;;6.50;2.40;;;;;;;4.58;81.22;101583.08;108448;1253;72303;-95
2023/03/19 02:24:10;;;;;;;4.30;2.60;;;;;;;4.61;81.13;101578.70;108446;1254;59292;-96
2023/03/19 02:27:30;;;;;;;7.00;3.30;;;;;;;4.61;80.71;101584.06;109159;1257;60372;-94
2023/03/19 02:30:45;;;;;;;7.10;4.40;;;;;;;4.49;80.61;101587.23;109056;1254;73802;-95
2023/03/19 02:33:29;;;;;;;3.10;2.20;;;;;;;4.43;80.59;101586.33;107961;1257;63477;-95
2023/03/19 02:35:59;;;;;;;2.30;2.10;;;;;;;4.40;80.85;101584.97;108172;1254;72702;-96
2023/03/19 02:38:58;;;;;;;8.90;2.50;;;;;;;4.41;80.88;101590.67;108487;1260;60480;-95
2023/03/19 02:42:14;;;;;;;7.80;3.10;;;;;;;4.35;80.79;101585.94;109557;1254;58777;-96
2023/03/19 02:45:15;;;;;;;4.50;2.30;;;;;;;4.35;80.88;101589.58;108657;1254;75296;-95
2023/03/19 02:48:31;;;;;;;4.80;2.60;;;;;;;4.31;80.71;101583.08;109541;1253;64738;-95
2023/03/19 02:51:15;;;;;;;4.00;2.30;;;;;;;4.30;80.40;101595.56;109278;1257;73626;-96
2023/03/19 02:54:39;;;;;;;5.30;2.20;;;;;;;4.20;80.88;101597.64;109067;1257;59864;-95
2023/03/19 02:58:13;;;;;;;3.60;2.50;;;;;;;4.21;81.23;101597.27;109252;1253;59592;-96
2023/03/19 03:12:35;;;;;;;7.90;2.20;;;;;;;4.41;80.73;101600.02;108984;1256;58525;31
2023/03/19 03:16:05;;;;;;;4.50;2.60;;;;;;;4.38;80.93;101598.89;107260;1268;59241;-95
2023/03/19 03:18:52;;;;;;;4.60;2.80;;;;;;;4.39;81.05;101596.95;108724;1268;73619;-96
2023/03/19 03:21:35;;;;;;;5.00;2.50;;;;;;;4.39;80.98;101594.87;108736;1268;67935;-96
2023/03/19 03:24:05;;;;;;;6.30;2.60;;;;;;;4.39;80.86;101596.95;108443;1271;72855;-95
2023/03/19 03:26:37;;;;;;;5.10;2.80;;;;;;;4.35;80.86;101593.39;108762;1268;61298;-95
2023/03/19 03:29:09;;;;;;;4.60;2.40;;;;;;;4.29;80.96;101592.45;108692;1268;59996;-96
2023/03/19 03:31:43;;;;;;;7.10;2.50;;;;;;;4.27;81.19;101592.15;107527;1270;72943;-95
2023/03/19 03:34:33;;;;;;;4.10;2.00;;;;;;;4.28;81.25;101591.27;107026;1268;64028;-94
2023/03/19 03:37:05;;;;;;;4.90;2.80;;;;;;;4.31;81.31;101590.86;105549;1272;73461;-96
2023/03/19 03:40:13;;;;;;;3.40;2.50;;;;;;;4.33;81.01;101587.71;106283;1268;60591;-95
2023/03/19 03:42:45;;;;;;;3.10;2.40;;;;;;;4.31;81.12;101591.55;106579;1273;60578;-96
2023/03/19 03:45:18;;;;;;;6.30;2.20;;;;;;;4.26;81.27;101587.65;108635;1268;72757;-95
2023/03/19 03:47:53;;;;;;;3.70;2.10;;;;;;;4.23;81.22;101592.23;108948;1264;62659;-95
2023/03/19 03:50:50;;;;;;;6.70;2.60;;;;;;;4.23;81.06;101592.77;108701;1264;72734;-94
2023/03/19 03:53:40;;;;;;;3.70;2.70;;;;;;;4.20;81.28;101595.73;106137;1266;61274;-95
2023/03/19 03:56:10;;;;;;;4.90;2.50;;;;;;;4.22;81.59;101595.70;108214;1267;59407;-94
2023/03/19 03:58:39;;;;;;;7.80;2.50;;;;;;;4.23;81.64;101594.30;108802;1267;73672;-95
2023/03/19 04:01:14;;;;;;;6.00;2.30;;;;;;;4.24;81.55;101595.48;108809;1267;63845;-96
2023/03/19 04:04:03;;;;;;;12.30;2.80;;;;;;;4.26;81.51;101593.02;107160;1267;72607;-96
2023/03/19 04:06:38;;;;;;;6.30;3.00;;;;;;;4.24;81.24;101592.04;106244;1267;60703;-94
2023/03/19 04:09:25;;;;;;;9.60;2.60;;;;;;;4.23;81.37;101595.35;106238;1273;60567;-96
2023/03/19 04:11:55;;;;;;;5.40;2.60;;;;;;;4.24;81.22;101594.80;107310;1267;73939;-95
2023/03/19 04:14:25;;;;;;;16.60;10.40;;;;;;;4.23;81.32;101592.92;106726;1267;64607;-95
2023/03/19 04:17:35;;;;;;;5.60;3.00;;;;;;;4.22;81.12;101595.00;107544;1264;72507;-95
2023/03/19 04:20:59;;;;;;;8.90;2.80;;;;;;;4.20;80.74;101591.93;107303;1268;61163;-96
2023/03/19 04:23:29;;;;;;;11.50;4.30;;;;;;;4.14;81.11;101594.09;106375;1265;61576;-95
2023/03/19 04:26:05;;;;;;;8.10;3.10;;;;;;;4.16;81.09;101594.61;106285;1268;73822;-95
2023/03/19 04:28:47;;;;;;;7.50;2.20;;;;;;;4.20;80.88;101593.31;108175;1268;62303;-95
2023/03/19 04:31:35;;;;;;;8.50;2.90;;;;;;;4.14;80.75;101591.34;106863;1268;74190;-95
2023/03/19 04:34:23;;;;;;;5.20;2.20;;;;;;;4.13;80.97;101595.86;106892;1268;60679;-94
2023/03/19 04:36:55;;;;;;;15.40;4.00;;;;;;;4.12;81.13;101592.75;106407;1268;60682;-96
2023/03/19 04:39:29;;;;;;;14.30;4.00;;;;;;;4.21;81.32;101595.55;107036;1268;73983;-95
2023/03/19 04:42:07;;;;;;;8.30;2.80;;;;;;;4.24;80.91;101598.95;107617;1268;63632;-95
2023/03/19 04:45:14;;;;;;;10.50;3.10;;;;;;;4.25;81.03;101600.16;107592;1268;71980;-96
2023/03/19 04:49:35;;;;;;;15.10;2.80;;;;;;;4.30;80.97;101600.92;105313;1290;612346;-94
2023/03/19 04:53:00;;;;;;;4.00;2.70;;;;;;;4.36;81.05;101604.62;107850;1276;59430;-94
2023/03/19 04:55:37;;;;;;;8.90;3.70;;;;;;;4.40;80.73;101602.98;107960;1279;60596;-95
2023/03/19 04:58:12;;;;;;;13.60;3.60;;;;;;;4.44;80.67;101603.96;106222;1269;71207;-96
2023/03/19 05:01:11;;;;;;;7.20;3.60;;;;;;;4.42;80.32;101601.94;102926;1265;6253544;-96
2023/03/19 05:04:01;;;;;;;12.70;3.70;;;;;;;4.34;80.49;101601.70;106846;1265;74123;-95
2023/03/19 05:06:44;;;;;;;5.10;2.90;;;;;;;4.36;80.50;101602.20;107995;1266;61558;-93
2023/03/19 05:09:13;;;;;;;13.70;2.80;;;;;;;4.38;80.38;101601.81;108154;1266;59403;-94
2023/03/19 05:12:01;;;;;;;7.40;3.10;;;;;;;4.37;80.67;101601.32;108251;1260;70342;-93
2023/03/19 05:15:05;;;;;;;13.30;3.90;;;;;;;4.34;80.79;101594.80;108492;1260;64228;-94
2023/03/19 05:18:38;;;;;;;8.60;3.60;;;;;;;4.50;80.80;101603.49;109074;1254;75204;-93
2023/03/19 05:21:33;;;;;;;6.80;3.50;;;;;;;4.57;80.33;101599.04;108950;1256;59512;-95
2023/03/19 05:24:12;;;;;;;5.10;3.00;;;;;;;4.58;80.25;101599.20;108670;1256;60450;-96
2023/03/19 05:27:11;;;;;;;8.10;3.30;;;;;;;4.55;80.14;101597.00;107853;1260;75065;-95
2023/03/19 05:30:13;;;;;;;5.00;2.50;;;;;;;4.51;80.00;101600.70;108239;1259;64637;-95
2023/03/19 05:33:04;;;;;;;9.50;3.40;;;;;;;4.47;80.23;101600.08;107286;1260;72821;-95
2023/03/19 05:35:39;;;;;;;14.00;2.80;;;;;;;4.47;80.53;101603.37;106268;1261;62094;-95
2023/03/19 05:40:22;;;;;;;10.40;3.30;;;;;;;4.56;80.49;101598.70;105291;1292;613296;-96
2023/03/19 05:43:14;;;;;;;10.40;3.10;;;;;;;4.53;80.30;101598.60;108538;1265;59346;-96
2023/03/19 05:49:20;;;;;;;6.80;3.90;;;;;;;4.56;80.07;101595.59;108605;1262;70685;-95
2023/03/19 05:53:41;;;;;;;4.20;2.50;;;;;;;4.59;80.39;101593.45;100605;1264;10189776;-95
2023/03/19 05:57:46;;;;;;;5.50;3.60;;;;;;;4.63;80.19;101591.15;106705;1271;59936;-95
2023/03/19 06:00:27;;;;;;;5.70;2.60;;;;;;;4.59;80.36;101586.52;107134;1270;59370;-94
2023/03/19 06:03:27;;;;;;;5.70;2.70;;;;;;;4.66;80.32;101596.44;107221;1270;70998;-96
2023/03/19 06:06:57;;;;;;;11.40;3.00;;;;;;;4.68;80.25;101593.09;107700;1254;63445;-95
2023/03/19 06:11:15;;;;;;;7.20;3.00;;;;;;;4.70;80.19;101599.14;108170;1273;72303;-95
2023/03/19 06:15:04;;;;;;;6.80;2.80;;;;;;;4.70;80.15;101603.97;106972;1281;59644;-96
2023/03/19 06:17:47;;;;;;;9.60;3.30;;;;;;;4.70;79.65;101601.38;105534;1276;60370;-95
2023/03/19 06:34:51;;;;;;;7.20;3.50;;;;;;;4.68;79.89;101602.29;107301;1263;980649;-96
2023/03/19 06:38:06;;;;;;;12.20;3.70;;;;;;;4.72;80.46;101599.08;108309;1258;71777;-89
2023/03/19 06:53:06;;;;;;;7.90;2.90;;;;;;;5.06;78.67;101597.53;108604;1262;58803;31
2023/03/19 06:55:50;;;;;;;17.80;3.50;;;;;;;5.05;79.00;101596.67;108103;1270;72994;-95
2023/03/19 06:58:23;;;;;;;8.10;3.00;;;;;;;5.11;78.56;101599.31;108525;1267;65222;-96
2023/03/19 07:02:39;;;;;;;11.90;4.00;;;;;;;5.10;78.41;101601.08;108546;1266;72105;-96
2023/03/19 08:16:12;;;;;;;8.60;3.90;;;;;;;5.28;78.79;101588.21;108614;1262;59603;-96
2023/03/19 08:27:39;;;;;;;7.40;3.00;;;;;;;5.60;78.40;101586.60;108540;1265;73003;-96
2023/03/19 08:31:48;;;;;;;7.90;2.60;;;;;;;5.79;78.05;101585.45;108309;1261;61156;31
2023/03/19 08:47:24;;;;;;;10.80;3.60;;;;;;;5.84;76.59;101578.92;108092;1277;71522;-95
2023/03/19 08:51:42;;;;;;;13.80;4.80;;;;;;;5.77;77.09;101570.05;107257;1268;60583;-96
2023/03/19 08:54:45;;;;;;;6.60;3.20;;;;;;;5.84;76.69;101575.95;107635;1274;58896;-95
2023/03/19 08:58:16;;;;;;;8.40;3.80;;;;;;;5.81;76.92;101573.27;106576;1278;72171;-95
2023/03/19 18:15:20;;;;;;;30.50;8.10;;;;;;;6.68;78.59;101373.06;110051;1257;58820;-96
2023/03/19 18:19:42;;;;;;;42.10;9.10;;;;;;;6.58;78.80;101372.14;109814;1262;70666;-96
2023/03/19 18:23:40;;;;;;;19.90;7.50;;;;;;;6.54;78.95;101372.47;111602;1247;62438;-96
2023/03/19 18:31:21;;;;;;;29.70;9.30;;;;;;;6.38;79.40;101378.34;110239;1239;976689;31
2023/03/19 18:45:59;;;;;;;26.30;8.30;;;;;;;6.39;79.99;101376.05;111615;1241;71179;-90
2023/03/19 18:49:56;;;;;;;23.90;8.20;;;;;;;6.44;79.71;101374.15;111725;1240;58768;-96
2023/03/19 19:04:24;;;;;;;20.90;7.30;;;;;;;6.30;79.85;101370.23;111356;1240;71213;-96
2023/03/19 19:26:27;;;;;;;22.60;8.10;;;;;;;6.07;80.49;101361.89;111431;1240;60118;-96
2023/03/19 19:30:27;;;;;;;25.40;9.00;;;;;;;6.07;80.80;101360.35;110867;1248;60002;-96
2023/03/19 19:36:36;;;;;;;20.40;8.70;;;;;;;6.08;80.91;101362.73;111620;1242;63374;-96
2023/03/19 19:39:51;;;;;;;26.10;8.90;;;;;;;6.13;80.95;101362.77;111868;1237;73002;-96
2023/03/19 19:43:25;;;;;;;30.70;9.50;;;;;;;6.20;81.00;101364.62;112246;1234;60947;-96
2023/03/19 19:47:28;;;;;;;34.50;10.90;;;;;;;6.32;80.64;101363.05;111887;1237;60179;-96
2023/03/19 19:51:21;;;;;;;35.70;11.70;;;;;;;6.34;80.49;101362.48;111570;1243;71745;-96
2023/03/19 19:58:48;;;;;;;;;;;;;;;;;;;;;
2023/03/19 20:08:03;;;;;;;28.50;9.20;;;;;;;6.17;80.70;101356.21;112472;1231;71466;-96
2023/03/19 20:15:11;;;;;;;26.30;9.70;;;;;;;6.24;80.96;101342.98;112532;1232;73390;-96
2023/03/19 20:23:42;;;;;;;30.70;10.10;;;;;;;6.31;80.27;101346.95;112449;1232;62438;-96
2023/03/19 20:46:28;;;;;;;27.10;9.60;;;;;;;6.66;79.64;101344.27;111882;1242;58675;-95
2023/03/19 20:49:56;;;;;;;26.50;10.60;;;;;;;6.64;79.58;101337.25;112567;1230;71553;-96
2023/03/19 21:18:29;;;;;;;43.00;12.60;;;;;;;6.76;78.97;101350.59;109646;1261;62446;-95
2023/03/19 21:21:44;;;;;;;37.90;13.40;;;;;;;6.67;79.01;101349.45;110622;1250;71184;-96
2023/03/19 21:25:40;;;;;;;38.80;12.40;;;;;;;6.58;79.14;101347.32;111301;1243;59812;31
2023/03/19 21:32:57;;;;;;;;;;;;;;;;;;;;;
2023/03/19 21:37:47;;;;;;;;;;;;;;;;;;;;;
2023/03/19 23:24:02;;;;;;;28.90;10.20;;;;;;;5.30;84.64;101337.64;109864;1260;71526;-96
